Time;durP1;ratioP1;P1;durP2;ratioP2;P2;SDS_P1;SDS_P2;PMS_P1;PMS_P2;Temp;Humidity;BMP_temperature;BMP_pressure;BME280_temperature;BME280_humidity;BME280_pressure;Samples;Min_cycle;Max_cycle;Signal;HPM_P1;HPM_P2
2023/07/09 00:02:15;;;;;;;10.67;7.10;;;;;;;;;;5074384;28;20395;-77
2023/07/09 00:04:41;;;;;;;8.17;6.23;;;;;;;;;;5074185;28;20374;-77
2023/07/09 00:07:12;;;;;;;8.50;6.20;;;;;;;;;;5039956;28;20430;-76
2023/07/09 00:09:38;;;;;;;8.53;6.30;;;;;;;;;;5074076;28;20439;-76
2023/07/09 00:12:06;;;;;;;9.17;6.97;;;;;;;;;;5056269;28;20435;-76
2023/07/09 00:14:32;;;;;;;11.03;7.10;;;;;;;;;;5056245;28;20769;-77
2023/07/09 00:16:58;;;;;;;16.17;7.40;;;;;;;;;;5056046;28;20423;-77
2023/07/09 00:19:24;;;;;;;7.00;6.10;;;;;;;;;;5074225;28;20469;-77
2023/07/09 00:21:53;;;;;;;8.33;6.17;;;;;;;;;;5055831;28;20907;-76
2023/07/09 00:24:19;;;;;;;8.90;5.50;;;;;;;;;;5073951;28;20940;-77
2023/07/09 00:26:48;;;;;;;14.53;6.90;;;;;;;;;;5055917;28;20420;-77
2023/07/09 00:29:14;;;;;;;10.40;6.40;;;;;;;;;;5039816;28;20864;-76
2023/07/09 00:31:41;;;;;;;8.10;5.93;;;;;;;;;;5055740;28;20423;-77
2023/07/09 00:34:13;;;;;;;8.90;6.50;;;;;;;;;;5073810;28;20738;-77
2023/07/09 00:36:39;;;;;;;9.57;5.57;;;;;;;;;;5073379;28;20922;-77
2023/07/09 00:39:11;;;;;;;8.40;6.97;;;;;;;;;;5056087;28;20417;-76
2023/07/09 00:41:37;;;;;;;10.63;6.10;;;;;;;;;;5056055;28;20505;-76
2023/07/09 00:44:18;;;;;;;10.43;6.23;;;;;;;;;;5073563;28;20408;-77
2023/07/09 00:46:47;;;;;;;9.63;6.13;;;;;;;;;;5073239;28;20411;-77
2023/07/09 00:49:16;;;;;;;11.70;6.93;;;;;;;;;;5073162;28;20836;-77
2023/07/09 00:51:45;;;;;;;8.63;6.47;;;;;;;;;;5073269;28;20890;-77
2023/07/09 00:54:30;;;;;;;11.13;5.97;;;;;;;;;;5073685;28;20476;-76
2023/07/09 00:56:58;;;;;;;8.60;6.03;;;;;;;;;;5073259;28;20738;-77
2023/07/09 00:59:25;;;;;;;7.50;6.40;;;;;;;;;;5073797;28;20402;-76
2023/07/09 01:01:52;;;;;;;9.30;6.33;;;;;;;;;;5073272;28;20414;-76
2023/07/09 01:04:21;;;;;;;7.17;6.40;;;;;;;;;;5073415;28;20403;-77
2023/07/09 01:06:54;;;;;;;10.47;7.20;;;;;;;;;;5055131;28;20423;-77
2023/07/09 01:09:21;;;;;;;8.30;6.47;;;;;;;;;;5073315;28;20521;-76
2023/07/09 01:11:47;;;;;;;8.73;6.23;;;;;;;;;;5055201;28;20420;-77
2023/07/09 01:14:16;;;;;;;12.67;7.10;;;;;;;;;;5038826;28;20423;-77
2023/07/09 01:16:56;;;;;;;9.77;6.80;;;;;;;;;;5073053;28;20399;-77
2023/07/09 01:19:25;;;;;;;8.60;5.90;;;;;;;;;;5073595;28;20419;-77
2023/07/09 01:21:52;;;;;;;10.70;6.17;;;;;;;;;;5055117;28;20793;-77
2023/07/09 01:24:38;;;;;;;10.10;6.70;;;;;;;;;;5038776;28;20429;-76
2023/07/09 01:27:05;;;;;;;11.70;6.47;;;;;;;;;;5054880;28;20862;-77
2023/07/09 01:29:31;;;;;;;8.43;7.10;;;;;;;;;;5039057;28;20469;-77
2023/07/09 01:31:57;;;;;;;13.67;6.50;;;;;;;;;;5055099;28;20918;-77
2023/07/09 01:34:24;;;;;;;9.80;7.23;;;;;;;;;;5072800;28;20411;-76
2023/07/09 01:36:51;;;;;;;8.30;7.20;;;;;;;;;;5038213;28;20423;-77
2023/07/09 01:39:18;;;;;;;10.40;6.50;;;;;;;;;;5038681;28;20598;-76
2023/07/09 01:41:46;;;;;;;8.77;6.90;;;;;;;;;;5054980;28;20415;-77
2023/07/09 01:44:12;;;;;;;9.53;6.10;;;;;;;;;;5055292;28;20465;-77
2023/07/09 01:46:38;;;;;;;12.13;6.90;;;;;;;;;;5073191;28;20407;-76
2023/07/09 01:49:07;;;;;;;9.20;7.43;;;;;;;;;;5072492;28;20990;-77
2023/07/09 01:51:33;;;;;;;8.90;7.00;;;;;;;;;;5055248;28;20432;-77
2023/07/09 01:53:59;;;;;;;8.30;6.47;;;;;;;;;;5073103;28;20403;-76
2023/07/09 01:56:26;;;;;;;7.90;6.87;;;;;;;;;;5057031;28;20469;-77
2023/07/09 01:58:52;;;;;;;11.63;7.27;;;;;;;;;;5076346;28;20502;-77
2023/07/09 02:01:19;;;;;;;8.70;6.80;;;;;;;;;;5042475;28;20502;-77
2023/07/09 02:03:45;;;;;;;8.40;6.90;;;;;;;;;;5058627;28;20953;-77
2023/07/09 02:06:12;;;;;;;10.03;7.07;;;;;;;;;;5076415;28;20429;-77
2023/07/09 02:08:38;;;;;;;8.90;7.37;;;;;;;;;;5076938;28;20461;-76
2023/07/09 02:11:05;;;;;;;8.47;6.63;;;;;;;;;;5076367;28;20438;-76
2023/07/09 02:13:31;;;;;;;8.10;7.27;;;;;;;;;;5058886;28;20407;-77
2023/07/09 02:15:57;;;;;;;9.93;7.40;;;;;;;;;;5058698;28;20557;-77
2023/07/09 02:18:23;;;;;;;10.90;6.77;;;;;;;;;;5058261;28;20431;-77
2023/07/09 02:20:49;;;;;;;10.30;7.10;;;;;;;;;;5076405;28;20407;-77
2023/07/09 02:23:15;;;;;;;8.97;6.97;;;;;;;;;;5076803;28;20765;-76
2023/07/09 02:25:41;;;;;;;9.77;7.13;;;;;;;;;;5076816;28;20972;-76
2023/07/09 02:28:07;;;;;;;9.27;6.20;;;;;;;;;;5058125;28;20423;-76
2023/07/09 02:30:33;;;;;;;16.23;7.87;;;;;;;;;;5058971;28;20426;-76
2023/07/09 02:32:59;;;;;;;11.27;7.10;;;;;;;;;;5058241;28;20420;-76
2023/07/09 02:35:25;;;;;;;8.33;7.20;;;;;;;;;;5058380;28;20411;-77
2023/07/09 02:37:51;;;;;;;9.30;5.97;;;;;;;;;;5075790;28;20438;-77
2023/07/09 02:40:17;;;;;;;13.50;7.03;;;;;;;;;;5076543;28;20426;-77
2023/07/09 02:42:43;;;;;;;8.70;5.87;;;;;;;;;;5041813;28;20420;-76
2023/07/09 02:45:10;;;;;;;10.63;7.13;;;;;;;;;;5075848;28;20465;-77
2023/07/09 02:47:36;;;;;;;10.17;6.60;;;;;;;;;;5041920;28;20424;-77
2023/07/09 02:50:03;;;;;;;11.43;6.00;;;;;;;;;;5075937;28;20483;-77
2023/07/09 02:52:29;;;;;;;9.30;6.63;;;;;;;;;;5058374;28;20469;-77
2023/07/09 02:54:55;;;;;;;9.03;7.40;;;;;;;;;;5041561;28;20438;-77
2023/07/09 02:57:21;;;;;;;12.40;7.93;;;;;;;;;;5076336;28;20778;-76
2023/07/09 02:59:47;;;;;;;7.87;6.67;;;;;;;;;;5058071;28;20415;-78
2023/07/09 03:02:13;;;;;;;8.30;6.30;;;;;;;;;;5076053;28;20468;-76
2023/07/09 03:04:39;;;;;;;8.70;7.30;;;;;;;;;;5076025;28;20550;-76
2023/07/09 03:07:05;;;;;;;14.40;7.43;;;;;;;;;;5040023;28;20422;-76
2023/07/09 03:09:31;;;;;;;13.47;7.10;;;;;;;;;;5058194;28;20469;-77
2023/07/09 03:11:57;;;;;;;9.67;6.60;;;;;;;;;;5075584;28;20820;-77
2023/07/09 03:14:23;;;;;;;10.90;7.00;;;;;;;;;;5075937;28;20407;-77
2023/07/09 03:16:49;;;;;;;11.20;6.70;;;;;;;;;;5057355;28;20411;-77
2023/07/09 03:19:15;;;;;;;9.60;7.57;;;;;;;;;;5057743;28;20435;-77
2023/07/09 03:21:41;;;;;;;10.83;6.60;;;;;;;;;;5057771;28;20403;-76
2023/07/09 03:24:08;;;;;;;8.47;7.03;;;;;;;;;;5041058;28;20426;-77
2023/07/09 03:26:34;;;;;;;8.13;6.77;;;;;;;;;;5041320;28;20427;-76
2023/07/09 03:29:01;;;;;;;13.83;7.20;;;;;;;;;;5075305;28;20947;-76
2023/07/09 03:31:27;;;;;;;9.60;6.93;;;;;;;;;;5075591;28;20411;-77
2023/07/09 03:33:53;;;;;;;11.37;7.50;;;;;;;;;;5057247;28;20422;-77
2023/07/09 03:36:20;;;;;;;9.53;7.10;;;;;;;;;;5075369;28;20435;-77
2023/07/09 03:38:46;;;;;;;11.60;6.27;;;;;;;;;;5057410;28;20910;-76
2023/07/09 03:41:12;;;;;;;9.80;7.13;;;;;;;;;;5057212;28;20408;-76
2023/07/09 03:43:38;;;;;;;10.00;6.50;;;;;;;;;;5040866;28;20435;-77
2023/07/09 03:46:04;;;;;;;9.13;7.20;;;;;;;;;;5040558;28;20472;-76
2023/07/09 03:48:30;;;;;;;7.97;6.00;;;;;;;;;;5057036;28;20483;-77
2023/07/09 03:50:56;;;;;;;11.77;7.27;;;;;;;;;;5040462;28;20411;-77
2023/07/09 03:53:22;;;;;;;8.90;7.00;;;;;;;;;;5057417;28;20423;-77
2023/07/09 03:55:52;;;;;;;8.30;7.37;;;;;;;;;;5040614;28;20562;-76
2023/07/09 03:58:18;;;;;;;8.80;7.37;;;;;;;;;;5075118;28;20380;-76
2023/07/09 04:00:44;;;;;;;10.20;7.20;;;;;;;;;;5057176;28;20835;-76
2023/07/09 04:03:11;;;;;;;13.93;7.97;;;;;;;;;;5056964;28;20431;-77
2023/07/09 04:05:37;;;;;;;11.60;7.03;;;;;;;;;;5057139;28;20494;-76
2023/07/09 04:08:03;;;;;;;8.00;6.70;;;;;;;;;;5056564;28;20415;-77
2023/07/09 04:10:29;;;;;;;11.27;7.50;;;;;;;;;;5056606;28;21000;-76
2023/07/09 04:12:55;;;;;;;11.57;7.47;;;;;;;;;;5056173;28;20912;-77
2023/07/09 04:15:21;;;;;;;9.07;7.60;;;;;;;;;;5074377;28;20917;-77
2023/07/09 04:17:47;;;;;;;10.57;7.40;;;;;;;;;;5074675;28;20446;-76
2023/07/09 04:20:13;;;;;;;11.33;7.57;;;;;;;;;;5074305;28;20419;-77
2023/07/09 04:22:40;;;;;;;12.40;7.70;;;;;;;;;;5074593;28;20403;-76
2023/07/09 04:25:09;;;;;;;7.57;6.20;;;;;;;;;;5056235;28;20968;-76
2023/07/09 04:27:36;;;;;;;9.70;7.20;;;;;;;;;;5056392;28;20815;-76
2023/07/09 04:30:05;;;;;;;11.40;7.80;;;;;;;;;;5073731;28;20520;-76
2023/07/09 04:32:31;;;;;;;7.60;6.20;;;;;;;;;;5056594;28;20411;-76
2023/07/09 04:34:57;;;;;;;9.30;7.33;;;;;;;;;;5073744;28;20386;-76
2023/07/09 04:37:23;;;;;;;9.90;6.63;;;;;;;;;;5056420;28;20512;-76
2023/07/09 04:39:49;;;;;;;10.90;6.80;;;;;;;;;;5056381;28;20561;-77
2023/07/09 04:42:16;;;;;;;10.37;7.87;;;;;;;;;;5073749;28;20414;-77
2023/07/09 04:44:43;;;;;;;8.43;7.47;;;;;;;;;;5039996;28;20415;-76
2023/07/09 04:47:09;;;;;;;8.57;6.60;;;;;;;;;;5056066;28;20913;-76
2023/07/09 04:49:35;;;;;;;11.33;6.17;;;;;;;;;;5073673;28;20581;-77
2023/07/09 04:52:01;;;;;;;7.33;6.63;;;;;;;;;;5055798;28;20490;-77
2023/07/09 04:54:28;;;;;;;10.30;7.20;;;;;;;;;;5073573;28;20502;-76
2023/07/09 04:56:55;;;;;;;13.03;7.17;;;;;;;;;;5055886;28;20411;-77
2023/07/09 04:59:22;;;;;;;8.13;6.50;;;;;;;;;;5073903;28;20438;-77
2023/07/09 05:01:48;;;;;;;11.67;6.47;;;;;;;;;;5055901;28;20890;-76
2023/07/09 05:04:14;;;;;;;8.87;6.50;;;;;;;;;;5073229;28;20406;-76
2023/07/09 05:06:40;;;;;;;10.60;6.23;;;;;;;;;;5055885;28;20412;-76
2023/07/09 05:09:06;;;;;;;11.27;6.70;;;;;;;;;;5055937;28;20447;-77
2023/07/09 05:11:34;;;;;;;12.80;6.63;;;;;;;;;;5055837;28;20426;-77
2023/07/09 05:14:00;;;;;;;6.93;5.50;;;;;;;;;;5055135;28;20411;-76
2023/07/09 05:16:26;;;;;;;9.67;6.57;;;;;;;;;;5073883;28;20395;-76
2023/07/09 05:18:52;;;;;;;11.77;6.13;;;;;;;;;;5039033;28;20454;-77
2023/07/09 05:21:18;;;;;;;7.33;5.50;;;;;;;;;;5073458;28;20411;-77
2023/07/09 05:23:44;;;;;;;8.70;6.70;;;;;;;;;;5039228;28;20430;-76
2023/07/09 05:26:10;;;;;;;9.63;6.20;;;;;;;;;;5055509;28;20403;-77
2023/07/09 05:28:36;;;;;;;10.40;6.67;;;;;;;;;;5055488;28;20466;-76
2023/07/09 05:31:02;;;;;;;9.20;5.77;;;;;;;;;;5056866;28;20476;-77
2023/07/09 05:33:28;;;;;;;6.93;6.20;;;;;;;;;;5077494;28;20381;-76
2023/07/09 05:35:55;;;;;;;8.33;6.57;;;;;;;;;;5059586;28;20464;-76
2023/07/09 05:38:21;;;;;;;7.63;6.03;;;;;;;;;;5059361;28;20419;-77
2023/07/09 05:40:48;;;;;;;9.93;6.20;;;;;;;;;;5059337;28;20426;-76
2023/07/09 05:43:15;;;;;;;9.33;6.70;;;;;;;;;;5059500;28;20382;-77
2023/07/09 05:45:41;;;;;;;7.27;5.83;;;;;;;;;;5077228;28;20942;-76
2023/07/09 05:48:07;;;;;;;7.90;7.03;;;;;;;;;;5058328;28;20454;-77
2023/07/09 05:50:35;;;;;;;6.50;5.40;;;;;;;;;;5077105;28;20501;-77
2023/07/09 05:53:01;;;;;;;11.17;5.37;;;;;;;;;;5058654;28;20422;-82
2023/07/09 05:55:27;;;;;;;8.00;5.43;;;;;;;;;;5059187;28;20415;-80
2023/07/09 05:57:54;;;;;;;13.03;5.60;;;;;;;;;;5059116;28;20411;-81
2023/07/09 06:00:20;;;;;;;12.03;5.83;;;;;;;;;;5058780;28;20449;-81
2023/07/09 06:02:46;;;;;;;7.27;5.57;;;;;;;;;;5059179;28;20498;-82
2023/07/09 06:05:12;;;;;;;6.80;5.30;;;;;;;;;;5058850;28;20759;-81
2023/07/09 06:07:39;;;;;;;9.20;5.23;;;;;;;;;;5058077;28;20415;-81
2023/07/09 06:10:07;;;;;;;8.17;6.00;;;;;;;;;;5073149;28;20489;-77
2023/07/09 06:12:33;;;;;;;6.50;5.00;;;;;;;;;;5075503;28;20442;-77
2023/07/09 06:14:59;;;;;;;13.13;7.00;;;;;;;;;;5057935;28;20766;-77
2023/07/09 06:17:25;;;;;;;13.10;5.60;;;;;;;;;;5042208;28;20514;-76
2023/07/09 06:19:51;;;;;;;8.03;5.60;;;;;;;;;;5076804;28;20455;-77
2023/07/09 06:22:17;;;;;;;7.33;5.50;;;;;;;;;;5058438;28;20416;-77
2023/07/09 06:24:45;;;;;;;8.10;5.40;;;;;;;;;;5058648;28;20419;-77
2023/07/09 06:27:11;;;;;;;10.60;5.97;;;;;;;;;;5058441;28;20418;-77
2023/07/09 06:29:37;;;;;;;6.90;5.50;;;;;;;;;;5076600;28;20498;-77
2023/07/09 06:32:03;;;;;;;9.00;5.70;;;;;;;;;;5076251;28;20427;-77
2023/07/09 06:34:29;;;;;;;10.57;6.20;;;;;;;;;;5042068;28;20502;-77
2023/07/09 06:36:56;;;;;;;9.17;5.77;;;;;;;;;;5058600;28;20399;-77
2023/07/09 06:39:22;;;;;;;8.03;5.70;;;;;;;;;;5058104;28;20976;-77
2023/07/09 06:41:48;;;;;;;7.10;5.47;;;;;;;;;;5058000;28;20427;-76
2023/07/09 06:44:14;;;;;;;10.73;6.40;;;;;;;;;;5058101;28;20414;-77
2023/07/09 06:46:41;;;;;;;11.07;5.93;;;;;;;;;;5076221;28;20895;-77
2023/07/09 06:49:07;;;;;;;7.83;5.83;;;;;;;;;;5076029;28;20837;-77
2023/07/09 06:51:33;;;;;;;6.97;5.37;;;;;;;;;;5076089;28;20414;-77
2023/07/09 06:54:00;;;;;;;7.60;5.67;;;;;;;;;;5076225;28;20766;-76
2023/07/09 06:56:26;;;;;;;7.47;6.00;;;;;;;;;;5057751;28;20443;-77
2023/07/09 06:58:52;;;;;;;7.10;5.40;;;;;;;;;;5058225;28;20403;-77
2023/07/09 07:01:18;;;;;;;12.57;6.33;;;;;;;;;;5075855;28;20466;-77
2023/07/09 07:03:44;;;;;;;11.07;5.87;;;;;;;;;;5076008;28;20403;-77
2023/07/09 07:06:10;;;;;;;10.93;5.90;;;;;;;;;;5041484;28;20422;-77
2023/07/09 07:08:36;;;;;;;7.37;5.50;;;;;;;;;;5057621;28;20470;-77
2023/07/09 07:11:04;;;;;;;10.13;6.23;;;;;;;;;;5075397;28;20414;-77
2023/07/09 07:13:30;;;;;;;12.57;5.07;;;;;;;;;;5056946;28;20419;-77
2023/07/09 07:15:56;;;;;;;12.37;5.87;;;;;;;;;;5056521;28;20837;-77
2023/07/09 07:18:23;;;;;;;9.40;6.20;;;;;;;;;;5056780;28;20493;-77
2023/07/09 07:20:50;;;;;;;11.73;7.00;;;;;;;;;;5057135;28;20459;-77
2023/07/09 07:23:16;;;;;;;6.90;5.70;;;;;;;;;;5057188;28;20804;-76
2023/07/09 07:25:42;;;;;;;10.63;6.33;;;;;;;;;;5075429;28;20400;-77
2023/07/09 07:28:08;;;;;;;12.87;5.70;;;;;;;;;;5056882;28;20834;-77
2023/07/09 07:30:34;;;;;;;8.50;5.77;;;;;;;;;;5075155;28;20474;-77
2023/07/09 07:33:00;;;;;;;9.40;5.80;;;;;;;;;;5040482;28;20420;-77
2023/07/09 07:35:26;;;;;;;9.30;6.40;;;;;;;;;;5056725;28;20431;-77
2023/07/09 07:37:52;;;;;;;8.70;6.83;;;;;;;;;;5057080;28;20426;-77
2023/07/09 07:40:18;;;;;;;7.73;5.83;;;;;;;;;;5056617;28;20418;-77
2023/07/09 07:42:45;;;;;;;9.20;5.87;;;;;;;;;;5056869;28;20835;-77
2023/07/09 07:45:12;;;;;;;7.13;5.57;;;;;;;;;;5056029;28;20447;-77
2023/07/09 07:47:39;;;;;;;6.93;5.50;;;;;;;;;;5074716;28;20395;-77
2023/07/09 07:50:05;;;;;;;9.47;5.37;;;;;;;;;;5085597;28;20901;-78
2023/07/09 07:52:31;;;;;;;9.40;6.17;;;;;;;;;;5093378;28;20425;-77
2023/07/09 07:54:57;;;;;;;7.93;5.90;;;;;;;;;;5092987;28;20422;-77
2023/07/09 07:57:26;;;;;;;10.13;5.20;;;;;;;;;;5076473;28;20421;-77
2023/07/09 07:59:52;;;;;;;6.73;5.17;;;;;;;;;;5093085;28;20425;-77
2023/07/09 08:02:18;;;;;;;9.53;5.47;;;;;;;;;;5093171;28;20406;-77
2023/07/09 08:04:44;;;;;;;5.77;5.17;;;;;;;;;;5076488;28;20418;-77
2023/07/09 08:07:10;;;;;;;6.17;4.50;;;;;;;;;;5093064;28;20411;-77
2023/07/09 08:09:37;;;;;;;8.40;4.80;;;;;;;;;;5094343;28;20548;-77
2023/07/09 08:12:11;;;;;;;5.00;4.43;;;;;;;;;;5093033;28;20934;-77
2023/07/09 08:14:37;;;;;;;6.27;4.70;;;;;;;;;;5094144;28;20908;-77
2023/07/09 08:17:03;;;;;;;8.43;5.20;;;;;;;;;;5093088;28;20774;-78
2023/07/09 08:19:29;;;;;;;7.20;4.97;;;;;;;;;;5094069;28;20453;-77
2023/07/09 08:21:55;;;;;;;6.83;5.13;;;;;;;;;;5094091;28;20406;-78
2023/07/09 08:24:21;;;;;;;6.60;4.80;;;;;;;;;;5092038;28;20426;-77
2023/07/09 08:26:47;;;;;;;10.67;5.70;;;;;;;;;;5094159;28;20413;-77
2023/07/09 08:29:13;;;;;;;7.50;4.20;;;;;;;;;;5093811;28;20458;-78
2023/07/09 08:31:41;;;;;;;8.30;5.20;;;;;;;;;;5076352;28;20418;-77
2023/07/09 08:34:08;;;;;;;7.90;4.83;;;;;;;;;;5094115;28;20417;-78
2023/07/09 08:36:34;;;;;;;7.20;4.40;;;;;;;;;;5094067;28;20407;-77
2023/07/09 08:39:03;;;;;;;5.60;4.87;;;;;;;;;;5093252;28;20808;-77
2023/07/09 08:41:35;;;;;;;7.20;4.37;;;;;;;;;;5093677;28;20409;-77
2023/07/09 08:44:20;;;;;;;5.97;4.47;;;;;;;;;;5093985;28;20402;-77
2023/07/09 08:46:53;;;;;;;5.87;4.37;;;;;;;;;;5080846;28;20410;-77
2023/07/09 08:49:21;;;;;;;6.40;4.67;;;;;;;;;;5092337;28;20474;-78
2023/07/09 08:51:48;;;;;;;6.80;4.57;;;;;;;;;;5093375;28;20406;-77
2023/07/09 08:54:19;;;;;;;8.13;4.57;;;;;;;;;;5092028;28;20433;-78
2023/07/09 08:56:45;;;;;;;6.00;4.67;;;;;;;;;;5093950;28;20528;-77
2023/07/09 08:59:14;;;;;;;6.97;4.90;;;;;;;;;;5093403;28;20415;-77
2023/07/09 09:01:50;;;;;;;7.33;4.40;;;;;;;;;;5093701;28;20415;-77
2023/07/09 09:04:20;;;;;;;6.73;5.20;;;;;;;;;;5093466;28;20390;-77
2023/07/09 09:06:48;;;;;;;5.60;4.40;;;;;;;;;;5093332;28;20391;-77
2023/07/09 09:09:33;;;;;;;12.67;4.63;;;;;;;;;;5092009;28;20523;-78
2023/07/09 09:12:14;;;;;;;7.20;4.50;;;;;;;;;;5093516;28;20397;-78
2023/07/09 09:14:43;;;;;;;7.07;4.50;;;;;;;;;;5093473;28;20436;-78
2023/07/09 09:17:14;;;;;;;9.60;4.87;;;;;;;;;;5092925;28;20410;-80
2023/07/09 09:19:46;;;;;;;7.07;4.60;;;;;;;;;;5093568;28;20439;-78
2023/07/09 09:22:14;;;;;;;9.07;4.97;;;;;;;;;;5092858;28;20460;-78
2023/07/09 09:24:51;;;;;;;5.80;4.83;;;;;;;;;;5093379;28;20402;-78
2023/07/09 09:27:17;;;;;;;5.23;4.73;;;;;;;;;;5093082;28;20413;-78
2023/07/09 09:29:43;;;;;;;9.07;4.40;;;;;;;;;;5093287;28;20464;-78
2023/07/09 09:32:22;;;;;;;4.70;4.20;;;;;;;;;;5091893;28;20760;-80
2023/07/09 09:34:48;;;;;;;4.90;4.50;;;;;;;;;;5092054;28;20417;-78
2023/07/09 09:37:22;;;;;;;5.03;4.43;;;;;;;;;;5092982;28;20410;-78
2023/07/09 09:39:49;;;;;;;7.80;5.00;;;;;;;;;;5091710;28;20425;-78
2023/07/09 09:42:15;;;;;;;7.27;4.90;;;;;;;;;;5093005;28;20410;-79
2023/07/09 09:44:44;;;;;;;5.10;4.50;;;;;;;;;;5093376;28;20410;-78
2023/07/09 09:47:13;;;;;;;4.90;3.90;;;;;;;;;;5093428;28;20456;-78
2023/07/09 09:49:40;;;;;;;7.33;4.57;;;;;;;;;;5091464;28;21005;-78
2023/07/09 09:52:11;;;;;;;5.70;4.33;;;;;;;;;;5091663;28;20417;-78
2023/07/09 09:54:40;;;;;;;4.23;3.83;;;;;;;;;;5093150;28;20391;-78
2023/07/09 09:57:16;;;;;;;5.17;4.07;;;;;;;;;;5093067;28;20402;-78
2023/07/09 09:59:42;;;;;;;10.57;4.50;;;;;;;;;;5092018;28;20414;-78
2023/07/09 10:02:18;;;;;;;6.43;4.70;;;;;;;;;;5092812;28;20410;-78
2023/07/09 10:04:45;;;;;;;4.13;3.50;;;;;;;;;;5091955;28;20436;-78
2023/07/09 10:07:13;;;;;;;6.70;4.63;;;;;;;;;;5091821;28;20402;-78
2023/07/09 10:09:47;;;;;;;9.27;4.97;;;;;;;;;;5092579;28;20825;-78
2023/07/09 10:12:28;;;;;;;6.67;4.73;;;;;;;;;;5091232;28;20483;-79
2023/07/09 10:15:07;;;;;;;5.17;4.67;;;;;;;;;;5092669;28;20402;-75
2023/07/09 10:17:38;;;;;;;7.27;4.50;;;;;;;;;;5095209;28;20437;-75
2023/07/09 10:20:23;;;;;;;7.70;4.70;;;;;;;;;;5097172;28;20430;-75
2023/07/09 10:23:02;;;;;;;5.60;3.97;;;;;;;;;;5096931;28;20391;-75
2023/07/09 10:25:44;;;;;;;5.50;4.47;;;;;;;;;;5096421;28;20390;-75
2023/07/09 10:28:10;;;;;;;6.63;4.60;;;;;;;;;;5096682;28;20402;-74
2023/07/09 10:30:42;;;;;;;8.10;4.30;;;;;;;;;;5095975;28;20457;-75
2023/07/09 10:33:08;;;;;;;7.03;4.30;;;;;;;;;;5096403;28;20387;-75
2023/07/09 10:35:46;;;;;;;4.13;3.73;;;;;;;;;;5094652;28;20414;-75
2023/07/09 10:38:21;;;;;;;6.60;4.80;;;;;;;;;;5094950;28;20414;-75
2023/07/09 10:40:50;;;;;;;4.63;4.10;;;;;;;;;;5094651;28;20410;-75
2023/07/09 10:43:19;;;;;;;4.83;4.00;;;;;;;;;;5096026;28;20406;-75
2023/07/09 10:45:48;;;;;;;6.23;3.93;;;;;;;;;;5094760;28;20410;-75
2023/07/09 10:48:19;;;;;;;11.60;4.97;;;;;;;;;;5095452;28;20489;-77
2023/07/09 10:50:49;;;;;;;5.27;4.50;;;;;;;;;;5095941;28;20454;-75
2023/07/09 10:53:30;;;;;;;5.60;3.77;;;;;;;;;;5095513;28;21088;-75
2023/07/09 10:56:19;;;;;;;7.00;4.30;;;;;;;;;;5095692;28;20426;-79
2023/07/09 10:58:58;;;;;;;4.00;3.60;;;;;;;;;;5082556;28;20418;-76
2023/07/09 11:01:39;;;;;;;6.10;4.33;;;;;;;;;;5077227;28;20502;-77
2023/07/09 11:04:09;;;;;;;4.50;4.10;;;;;;;;;;5095989;28;20405;-76
2023/07/09 11:06:41;;;;;;;4.00;3.60;;;;;;;;;;5095361;28;20455;-75
2023/07/09 11:09:11;;;;;;;5.50;3.30;;;;;;;;;;5095475;28;20458;-75
2023/07/09 11:11:39;;;;;;;5.53;3.50;;;;;;;;;;5077013;28;20762;-75
2023/07/09 11:14:10;;;;;;;4.10;3.70;;;;;;;;;;5095466;28;20402;-75
2023/07/09 11:16:38;;;;;;;4.00;3.60;;;;;;;;;;5094906;28;20402;-75
2023/07/09 11:19:06;;;;;;;4.30;3.90;;;;;;;;;;5095559;28;20430;-75
2023/07/09 11:21:32;;;;;;;5.37;4.37;;;;;;;;;;5094699;28;20417;-74
2023/07/09 11:24:00;;;;;;;6.10;3.60;;;;;;;;;;5095007;28;20398;-75
2023/07/09 11:26:27;;;;;;;3.60;3.30;;;;;;;;;;5094943;28;20409;-75
2023/07/09 11:29:02;;;;;;;5.50;3.47;;;;;;;;;;5094017;28;20465;-76
2023/07/09 11:31:35;;;;;;;4.07;3.67;;;;;;;;;;5094511;28;20409;-76
2023/07/09 11:34:07;;;;;;;4.63;4.13;;;;;;;;;;5095367;28;20498;-76
2023/07/09 11:36:34;;;;;;;4.77;3.90;;;;;;;;;;5094455;28;20434;-76
2023/07/09 11:39:01;;;;;;;4.70;3.63;;;;;;;;;;5095079;28;20436;-74
2023/07/09 11:41:39;;;;;;;12.43;3.80;;;;;;;;;;5094265;28;20913;-75
2023/07/09 11:44:14;;;;;;;7.47;3.80;;;;;;;;;;5076422;28;20491;-75
2023/07/09 11:46:47;;;;;;;4.73;3.50;;;;;;;;;;5094547;28;20429;-76
2023/07/09 11:49:13;;;;;;;3.93;3.60;;;;;;;;;;5085040;28;20490;-77
2023/07/09 11:51:47;;;;;;;9.50;4.20;;;;;;;;;;5056227;28;20415;-77
2023/07/09 11:54:13;;;;;;;5.37;4.13;;;;;;;;;;5074409;28;20721;-76
2023/07/09 11:56:40;;;;;;;4.20;3.73;;;;;;;;;;5073559;28;20501;-76
2023/07/09 11:59:08;;;;;;;5.50;3.33;;;;;;;;;;5073849;28;20399;-76
2023/07/09 12:01:43;;;;;;;6.13;4.17;;;;;;;;;;5055988;28;20438;-77
2023/07/09 12:04:13;;;;;;;8.17;4.10;;;;;;;;;;5073950;28;20394;-77
2023/07/09 12:06:40;;;;;;;4.80;4.00;;;;;;;;;;5073730;28;20864;-77
2023/07/09 12:09:06;;;;;;;5.87;3.87;;;;;;;;;;5074441;28;20455;-77
2023/07/09 12:11:34;;;;;;;5.63;4.17;;;;;;;;;;5073972;28;20799;-77
2023/07/09 12:14:20;;;;;;;5.30;3.80;;;;;;;;;;5074379;28;20411;-76
2023/07/09 12:16:47;;;;;;;4.10;3.60;;;;;;;;;;5073788;28;20399;-77
2023/07/09 12:19:15;;;;;;;3.53;3.23;;;;;;;;;;5073987;28;20426;-77
2023/07/09 12:21:44;;;;;;;5.77;3.83;;;;;;;;;;5073878;28;20404;-77
2023/07/09 12:24:20;;;;;;;4.87;4.00;;;;;;;;;;5074037;28;20400;-76
2023/07/09 12:26:48;;;;;;;5.90;3.53;;;;;;;;;;5074123;28;20494;-77
2023/07/09 12:29:15;;;;;;;5.20;3.87;;;;;;;;;;5073814;28;20450;-76
2023/07/09 12:31:41;;;;;;;5.63;4.37;;;;;;;;;;5073651;28;20415;-76
2023/07/09 12:34:12;;;;;;;5.83;3.80;;;;;;;;;;5073901;28;20494;-76
2023/07/09 12:36:38;;;;;;;6.37;4.07;;;;;;;;;;5073920;28;20454;-77
2023/07/09 12:39:05;;;;;;;6.13;3.50;;;;;;;;;;5073706;28;20438;-77
2023/07/09 12:41:36;;;;;;;4.90;4.10;;;;;;;;;;5073485;28;20457;-77
2023/07/09 12:44:02;;;;;;;6.17;3.73;;;;;;;;;;5073653;28;20494;-76
2023/07/09 12:46:29;;;;;;;4.80;3.53;;;;;;;;;;5055693;28;20442;-78
2023/07/09 12:48:55;;;;;;;4.10;3.67;;;;;;;;;;5073286;28;20474;-77
2023/07/09 12:51:24;;;;;;;6.20;3.97;;;;;;;;;;5073333;28;20419;-77
2023/07/09 12:54:00;;;;;;;5.40;3.30;;;;;;;;;;5073662;28;20906;-77
2023/07/09 12:56:26;;;;;;;6.00;4.00;;;;;;;;;;5073310;28;20391;-77
2023/07/09 12:58:57;;;;;;;7.73;3.93;;;;;;;;;;5073926;28;20773;-77
2023/07/09 13:01:25;;;;;;;5.00;3.80;;;;;;;;;;5073353;28;20974;-77
2023/07/09 13:03:56;;;;;;;4.50;3.37;;;;;;;;;;5073496;28;20399;-77
2023/07/09 13:06:27;;;;;;;4.50;3.80;;;;;;;;;;5073408;28;20784;-77
2023/07/09 13:08:56;;;;;;;4.70;3.50;;;;;;;;;;5055856;28;20473;-85
2023/07/09 13:11:23;;;;;;;6.60;3.60;;;;;;;;;;5073592;28;20407;-83
2023/07/09 13:13:59;;;;;;;3.90;3.13;;;;;;;;;;5038887;28;20418;-86
2023/07/09 13:16:25;;;;;;;5.73;3.17;;;;;;;;;;5072963;28;20465;-88
2023/07/09 13:18:51;;;;;;;4.10;3.70;;;;;;;;;;5055113;28;20427;-79
2023/07/09 13:21:18;;;;;;;5.10;3.67;;;;;;;;;;5055280;28;20411;-77
2023/07/09 13:23:44;;;;;;;4.47;3.53;;;;;;;;;;5054329;28;20421;-79
2023/07/09 13:26:10;;;;;;;5.27;3.40;;;;;;;;;;5073412;28;20415;-79
2023/07/09 13:28:36;;;;;;;5.60;3.47;;;;;;;;;;5038034;28;20438;-79
2023/07/09 13:31:09;;;;;;;6.13;4.20;;;;;;;;;;5055210;28;20807;-78
2023/07/09 13:33:36;;;;;;;4.53;3.60;;;;;;;;;;5072652;28;20392;-77
2023/07/09 13:36:03;;;;;;;5.00;3.53;;;;;;;;;;5072669;28;20402;-78
2023/07/09 13:38:29;;;;;;;3.30;3.00;;;;;;;;;;5072111;28;20403;-77
2023/07/09 13:40:57;;;;;;;8.27;4.03;;;;;;;;;;5054819;28;20474;-79
2023/07/09 13:43:33;;;;;;;5.47;3.97;;;;;;;;;;5072869;28;20399;-78
2023/07/09 13:46:00;;;;;;;7.10;3.93;;;;;;;;;;5073127;28;20395;-79
2023/07/09 13:48:26;;;;;;;4.73;3.80;;;;;;;;;;5072212;28;20493;-79
2023/07/09 13:50:53;;;;;;;8.23;4.10;;;;;;;;;;5072491;28;20461;-79
2023/07/09 13:53:21;;;;;;;6.63;3.53;;;;;;;;;;5076177;28;20815;-79
2023/07/09 13:55:47;;;;;;;5.80;3.40;;;;;;;;;;5076267;28;20761;-79
2023/07/09 13:58:15;;;;;;;5.20;3.20;;;;;;;;;;5056114;28;20907;-79
2023/07/09 14:00:42;;;;;;;3.97;3.40;;;;;;;;;;5073987;28;20417;-76
2023/07/09 14:03:22;;;;;;;4.33;3.33;;;;;;;;;;5076551;28;20404;-77
2023/07/09 14:05:48;;;;;;;4.10;2.97;;;;;;;;;;5075802;28;20406;-76
2023/07/09 14:08:14;;;;;;;3.40;3.07;;;;;;;;;;5058676;28;20427;-77
2023/07/09 14:10:40;;;;;;;4.50;3.10;;;;;;;;;;5075876;28;20509;-77
2023/07/09 14:13:12;;;;;;;3.27;2.83;;;;;;;;;;5041251;28;20415;-77
2023/07/09 14:15:38;;;;;;;6.87;3.00;;;;;;;;;;5057703;28;20414;-77
2023/07/09 14:18:05;;;;;;;10.30;3.40;;;;;;;;;;5076537;28;20404;-76
2023/07/09 14:20:31;;;;;;;5.40;3.67;;;;;;;;;;5075381;28;20420;-79
2023/07/09 14:22:58;;;;;;;5.73;4.30;;;;;;;;;;5058384;28;20949;-78
2023/07/09 14:25:25;;;;;;;7.50;3.07;;;;;;;;;;5076101;28;20778;-79
2023/07/09 14:27:53;;;;;;;11.70;5.10;;;;;;;;;;5074865;28;20418;-78
2023/07/09 14:30:20;;;;;;;8.30;5.63;;;;;;;;;;5076117;28;20509;-79
2023/07/09 14:32:47;;;;;;;12.47;6.17;;;;;;;;;;5057987;28;20415;-79
2023/07/09 14:35:17;;;;;;;15.80;7.00;;;;;;;;;;5057490;28;20875;-87
2023/07/09 14:37:44;;;;;;;13.97;7.60;;;;;;;;;;5058168;28;20421;-86
2023/07/09 14:40:10;;;;;;;17.50;7.30;;;;;;;;;;5058322;28;20469;-83
2023/07/09 14:42:37;;;;;;;16.77;8.27;;;;;;;;;;5057428;28;20426;-80
2023/07/09 14:45:04;;;;;;;12.47;6.97;;;;;;;;;;5042418;28;20502;-83
2023/07/09 14:47:31;;;;;;;10.73;7.60;;;;;;;;;;5058016;28;20554;-83